sensor_id;sensor_type;location;lat;lon;timestamp;pressure;altitude;pressure_sealevel;temperature;humidity
13312;BME280;34033;48.672;9.376;2023-05-01T00:00:59;98475.44;;;14.04;62.10
13312;BME280;34033;48.672;9.376;2023-05-01T00:03:25;98469.00;;;14.07;61.83
13312;BME280;34033;48.672;9.376;2023-05-01T00:05:51;98465.38;;;14.07;61.81
13312;BME280;34033;48.672;9.376;2023-05-01T00:08:16;98458.59;;;14.04;61.70
13312;BME280;34033;48.672;9.376;2023-05-01T00:10:41;98459.00;;;14.03;61.84
13312;BME280;34033;48.672;9.376;2023-05-01T00:13:07;98454.16;;;14.03;61.20
13312;BME280;34033;48.672;9.376;2023-05-01T00:15:34;98457.78;;;14.04;61.62
13312;BME280;34033;48.672;9.376;2023-05-01T00:17:59;98457.03;;;14.00;61.25
13312;BME280;34033;48.672;9.376;2023-05-01T00:20:28;98449.81;;;13.95;61.04
13312;BME280;34033;48.672;9.376;2023-05-01T00:22:54;98445.47;;;13.87;61.87
13312;BME280;34033;48.672;9.376;2023-05-01T00:25:19;98439.44;;;13.85;61.73
13312;BME280;34033;48.672;9.376;2023-05-01T00:27:45;98440.66;;;13.84;61.73
13312;BME280;34033;48.672;9.376;2023-05-01T00:30:11;98433.03;;;13.85;61.57
13312;BME280;34033;48.672;9.376;2023-05-01T00:32:36;98434.22;;;13.87;61.77
13312;BME280;34033;48.672;9.376;2023-05-01T00:35:03;98436.59;;;13.92;61.90
13312;BME280;34033;48.672;9.376;2023-05-01T00:37:28;98431.44;;;13.80;62.21
13312;BME280;34033;48.672;9.376;2023-05-01T00:39:53;98430.28;;;13.74;61.54
13312;BME280;34033;48.672;9.376;2023-05-01T00:42:19;98430.72;;;13.69;62.08
13312;BME280;34033;48.672;9.376;2023-05-01T00:44:44;98433.53;;;13.69;62.38
13312;BME280;34033;48.672;9.376;2023-05-01T00:47:10;98419.88;;;13.71;62.33
13312;BME280;34033;48.672;9.376;2023-05-01T00:49:35;98416.25;;;13.74;62.00
13312;BME280;34033;48.672;9.376;2023-05-01T00:52:01;98415.81;;;13.79;62.05
13312;BME280;34033;48.672;9.376;2023-05-01T00:54:27;98421.81;;;13.81;62.57
13312;BME280;34033;48.672;9.376;2023-05-01T00:56:53;98414.94;;;13.89;62.60
13312;BME280;34033;48.672;9.376;2023-05-01T00:59:19;98412.09;;;13.93;61.86
13312;BME280;34033;48.672;9.376;2023-05-01T01:01:45;98407.66;;;13.95;62.06
13312;BME280;34033;48.672;9.376;2023-05-01T01:04:11;98407.66;;;13.95;63.02
13312;BME280;34033;48.672;9.376;2023-05-01T01:07:00;98403.28;;;13.91;62.36
13312;BME280;34033;48.672;9.376;2023-05-01T01:12:24;98406.53;;;13.89;61.97
13312;BME280;34033;48.672;9.376;2023-05-01T01:17:32;98391.28;;;13.87;62.90
13312;BME280;34033;48.672;9.376;2023-05-01T01:23:47;98391.69;;;13.85;61.94
13312;BME280;34033;48.672;9.376;2023-05-01T01:26:43;98393.31;;;13.79;61.96
13312;BME280;34033;48.672;9.376;2023-05-01T01:32:05;98382.16;;;13.68;62.63
13312;BME280;34033;48.672;9.376;2023-05-01T01:34:35;98391.38;;;13.72;62.97
13312;BME280;34033;48.672;9.376;2023-05-01T01:37:29;98386.94;;;13.75;63.07
13312;BME280;34033;48.672;9.376;2023-05-01T01:40:02;98384.09;;;13.78;62.40
13312;BME280;34033;48.672;9.376;2023-05-01T01:42:54;98385.69;;;13.79;62.71
13312;BME280;34033;48.672;9.376;2023-05-01T01:45:26;98385.72;;;13.76;62.86
13312;BME280;34033;48.672;9.376;2023-05-01T01:47:53;98380.50;;;13.78;62.93
13312;BME280;34033;48.672;9.376;2023-05-01T01:50:23;98385.34;;;13.77;62.75
13312;BME280;34033;48.672;9.376;2023-05-01T01:52:51;98385.72;;;13.76;62.46
13312;BME280;34033;48.672;9.376;2023-05-01T01:55:21;98382.16;;;13.68;62.80
13312;BME280;34033;48.672;9.376;2023-05-01T01:57:49;98376.59;;;13.65;63.10
13312;BME280;34033;48.672;9.376;2023-05-01T02:00:16;98372.97;;;13.64;63.27
13312;BME280;34033;48.672;9.376;2023-05-01T02:02:43;98368.56;;;13.67;63.55
13312;BME280;34033;48.672;9.376;2023-05-01T02:05:13;98369.75;;;13.66;63.32
13312;BME280;34033;48.672;9.376;2023-05-01T02:07:40;98360.53;;;13.62;63.69
13312;BME280;34033;48.672;9.376;2023-05-01T02:10:12;98354.56;;;13.60;63.48
13312;BME280;34033;48.672;9.376;2023-05-01T02:12:39;98351.72;;;13.63;63.29
13312;BME280;34033;48.672;9.376;2023-05-01T02:15:06;98352.50;;;13.64;63.69
13312;BME280;34033;48.672;9.376;2023-05-01T02:17:35;98350.91;;;13.63;63.44
13312;BME280;34033;48.672;9.376;2023-05-01T02:20:02;98340.06;;;13.65;63.96
13312;BME280;34033;48.672;9.376;2023-05-01T02:22:29;98344.09;;;13.64;63.25
13312;BME280;34033;48.672;9.376;2023-05-01T02:24:55;98347.34;;;13.59;63.30
13312;BME280;34033;48.672;9.376;2023-05-01T02:27:34;98344.53;;;13.59;63.56
13312;BME280;34033;48.672;9.376;2023-05-01T02:30:00;98339.75;;;13.52;63.74
13312;BME280;34033;48.672;9.376;2023-05-01T02:32:26;98334.13;;;13.52;64.03
13312;BME280;34033;48.672;9.376;2023-05-01T02:34:52;98340.50;;;13.60;62.85
13312;BME280;34033;48.672;9.376;2023-05-01T02:37:18;98338.16;;;13.55;63.53
13312;BME280;34033;48.672;9.376;2023-05-01T02:39:44;98338.16;;;13.51;64.20
13312;BME280;34033;48.672;9.376;2023-05-01T02:42:10;98335.44;;;13.41;64.27
13312;BME280;34033;48.672;9.376;2023-05-01T02:44:46;98337.84;;;13.42;63.87
13312;BME280;34033;48.672;9.376;2023-05-01T02:47:17;98327.41;;;13.43;64.39
13312;BME280;34033;48.672;9.376;2023-05-01T02:49:44;98330.97;;;13.47;64.53
13312;BME280;34033;48.672;9.376;2023-05-01T02:52:13;98328.56;;;13.49;63.84
13312;BME280;34033;48.672;9.376;2023-05-01T02:54:39;98328.53;;;13.52;63.26
13312;BME280;34033;48.672;9.376;2023-05-01T02:57:04;98332.91;;;13.57;63.34
13312;BME280;34033;48.672;9.376;2023-05-01T02:59:30;98332.47;;;13.62;62.78
13312;BME280;34033;48.672;9.376;2023-05-01T03:01:56;98334.06;;;13.63;62.07
13312;BME280;34033;48.672;9.376;2023-05-01T03:04:22;98335.66;;;13.64;61.81
13312;BME280;34033;48.672;9.376;2023-05-01T03:06:47;98336.47;;;13.64;62.50
13312;BME280;34033;48.672;9.376;2023-05-01T03:09:12;98334.81;;;13.70;62.12
13312;BME280;34033;48.672;9.376;2023-05-01T03:11:38;98336.00;;;13.69;62.52
13312;BME280;34033;48.672;9.376;2023-05-01T03:14:03;98337.22;;;13.72;63.36
13312;BME280;34033;48.672;9.376;2023-05-01T03:16:28;98332.75;;;13.78;62.67
13312;BME280;34033;48.672;9.376;2023-05-01T03:18:54;98327.91;;;13.78;63.27
13312;BME280;34033;48.672;9.376;2023-05-01T03:21:20;98330.00;;;13.71;63.46
13312;BME280;34033;48.672;9.376;2023-05-01T03:23:45;98329.22;;;13.67;63.00
13312;BME280;34033;48.672;9.376;2023-05-01T03:26:11;98330.09;;;13.57;63.84
13312;BME280;34033;48.672;9.376;2023-05-01T03:28:36;98321.25;;;13.58;64.09
13312;BME280;34033;48.672;9.376;2023-05-01T03:31:01;98325.72;;;13.56;64.18
13312;BME280;34033;48.672;9.376;2023-05-01T03:33:27;98324.47;;;13.57;64.36
13312;BME280;34033;48.672;9.376;2023-05-01T03:36:02;98317.38;;;13.45;65.06
13312;BME280;34033;48.672;9.376;2023-05-01T03:38:29;98315.44;;;13.31;65.87
13312;BME280;34033;48.672;9.376;2023-05-01T03:40:55;98314.59;;;13.34;66.27
13312;BME280;34033;48.672;9.376;2023-05-01T03:43:20;98307.75;;;13.43;66.81
13312;BME280;34033;48.672;9.376;2023-05-01T03:45:45;98312.50;;;13.49;66.88
13312;BME280;34033;48.672;9.376;2023-05-01T03:48:11;98308.84;;;13.56;67.08
13312;BME280;34033;48.672;9.376;2023-05-01T03:50:37;98309.22;;;13.58;66.78
13312;BME280;34033;48.672;9.376;2023-05-01T03:53:03;98314.84;;;13.61;66.01
13312;BME280;34033;48.672;9.376;2023-05-01T03:55:28;98305.59;;;13.61;65.59
13312;BME280;34033;48.672;9.376;2023-05-01T03:57:54;98306.81;;;13.56;65.43
13312;BME280;34033;48.672;9.376;2023-05-01T04:00:19;98300.44;;;13.56;64.39
13312;BME280;34033;48.672;9.376;2023-05-01T04:02:44;98306.84;;;13.53;64.40
13312;BME280;34033;48.672;9.376;2023-05-01T04:05:10;98305.25;;;13.52;64.67
13312;BME280;34033;48.672;9.376;2023-05-01T04:07:35;98302.44;;;13.52;64.87
13312;BME280;34033;48.672;9.376;2023-05-01T04:10:01;98302.03;;;13.53;64.31
13312;BME280;34033;48.672;9.376;2023-05-01T04:12:26;98302.84;;;13.54;63.80
13312;BME280;34033;48.672;9.376;2023-05-01T04:14:52;98316.88;;;13.54;63.27
13312;BME280;34033;48.672;9.376;2023-05-01T04:17:17;98308.88;;;13.52;64.02
13312;BME280;34033;48.672;9.376;2023-05-01T04:19:42;98308.00;;;13.59;64.57
13312;BME280;34033;48.672;9.376;2023-05-01T04:22:08;98312.84;;;13.58;65.05
13312;BME280;34033;48.672;9.376;2023-05-01T04:24:33;98320.09;;;13.56;64.62
13312;BME280;34033;48.672;9.376;2023-05-01T04:26:59;98310.13;;;13.48;65.42
13312;BME280;34033;48.672;9.376;2023-05-01T04:29:24;98312.97;;;13.41;65.25
13312;BME280;34033;48.672;9.376;2023-05-01T04:31:49;98304.63;;;13.33;65.17
13312;BME280;34033;48.672;9.376;2023-05-01T04:34:15;98302.19;;;13.35;65.70
13312;BME280;34033;48.672;9.376;2023-05-01T04:36:40;98300.16;;;13.40;65.38
13312;BME280;34033;48.672;9.376;2023-05-01T04:39:05;98308.13;;;13.45;65.59
13312;BME280;34033;48.672;9.376;2023-05-01T04:41:31;98310.88;;;13.52;65.07
13312;BME280;34033;48.672;9.376;2023-05-01T04:43:56;98309.22;;;13.58;64.70
13312;BME280;34033;48.672;9.376;2023-05-01T04:46:21;98314.78;;;13.65;64.48
13312;BME280;34033;48.672;9.376;2023-05-01T04:48:46;98323.56;;;13.70;65.50
13312;BME280;34033;48.672;9.376;2023-05-01T04:51:12;98313.91;;;13.75;64.92
13312;BME280;34033;48.672;9.376;2023-05-01T04:53:37;98315.91;;;13.78;64.43
13312;BME280;34033;48.672;9.376;2023-05-01T04:56:03;98308.63;;;13.81;64.13
13312;BME280;34033;48.672;9.376;2023-05-01T04:58:28;98314.66;;;13.83;65.46
13312;BME280;34033;48.672;9.376;2023-05-01T05:00:53;98319.00;;;13.87;65.52
13312;BME280;34033;48.672;9.376;2023-05-01T05:03:18;98315.41;;;13.87;65.45
13312;BME280;34033;48.672;9.376;2023-05-01T05:05:44;98320.22;;;13.86;65.60
13312;BME280;34033;48.672;9.376;2023-05-01T05:08:10;98315.41;;;13.87;66.10
13312;BME280;34033;48.672;9.376;2023-05-01T05:10:36;98318.63;;;13.85;65.89
13312;BME280;34033;48.672;9.376;2023-05-01T05:13:01;98320.22;;;13.86;65.90
13312;BME280;34033;48.672;9.376;2023-05-01T05:15:26;98319.00;;;13.87;65.76
13312;BME280;34033;48.672;9.376;2023-05-01T05:17:52;98313.41;;;13.87;65.80
13312;BME280;34033;48.672;9.376;2023-05-01T05:20:17;98320.19;;;13.90;66.25
13312;BME280;34033;48.672;9.376;2023-05-01T05:22:42;98318.56;;;13.92;65.22
13312;BME280;34033;48.672;9.376;2023-05-01T05:25:08;98311.34;;;13.91;65.81
13312;BME280;34033;48.672;9.376;2023-05-01T05:27:33;98314.56;;;13.90;66.20
13312;BME280;34033;48.672;9.376;2023-05-01T05:30:03;98313.34;;;13.91;64.90
13312;BME280;34033;48.672;9.376;2023-05-01T05:32:30;98314.16;;;13.91;65.04
13312;BME280;34033;48.672;9.376;2023-05-01T05:34:55;98318.16;;;13.90;64.73
13312;BME280;34033;48.672;9.376;2023-05-01T05:37:20;98313.75;;;13.93;64.69
13312;BME280;34033;48.672;9.376;2023-05-01T05:39:46;98318.56;;;13.92;64.50
13312;BME280;34033;48.672;9.376;2023-05-01T05:42:11;98311.72;;;13.93;64.75
13312;BME280;34033;48.672;9.376;2023-05-01T05:44:37;98324.94;;;13.96;65.04
13312;BME280;34033;48.672;9.376;2023-05-01T05:47:03;98326.09;;;14.02;65.89
13312;BME280;34033;48.672;9.376;2023-05-01T05:49:28;98320.41;;;14.06;65.58
13312;BME280;34033;48.672;9.376;2023-05-01T05:51:54;98324.81;;;14.10;65.85
13312;BME280;34033;48.672;9.376;2023-05-01T05:54:20;98325.19;;;14.12;66.30
13312;BME280;34033;48.672;9.376;2023-05-01T05:56:45;98320.75;;;14.15;65.96
13312;BME280;34033;48.672;9.376;2023-05-01T05:59:11;98328.78;;;14.16;65.49
13312;BME280;34033;48.672;9.376;2023-05-01T06:01:36;98326.44;;;14.08;65.65
13312;BME280;34033;48.672;9.376;2023-05-01T06:04:01;98330.84;;;14.09;68.55
13312;BME280;34033;48.672;9.376;2023-05-01T06:06:27;98320.78;;;14.11;68.22
13312;BME280;34033;48.672;9.376;2023-05-01T06:08:53;98324.38;;;14.15;68.94
13312;BME280;34033;48.672;9.376;2023-05-01T06:11:18;98320.69;;;14.18;67.75
13312;BME280;34033;48.672;9.376;2023-05-01T06:13:45;98328.38;;;14.14;67.80
13312;BME280;34033;48.672;9.376;2023-05-01T06:16:10;98317.53;;;14.16;68.05
13312;BME280;34033;48.672;9.376;2023-05-01T06:18:36;98311.47;;;14.18;67.77
13312;BME280;34033;48.672;9.376;2023-05-01T06:21:01;98325.53;;;14.18;67.41
13312;BME280;34033;48.672;9.376;2023-05-01T06:23:27;98315.84;;;14.23;71.89
13312;BME280;34033;48.672;9.376;2023-05-01T06:25:52;98321.09;;;14.20;70.05
13312;BME280;34033;48.672;9.376;2023-05-01T06:28:18;98323.16;;;14.13;69.14
13312;BME280;34033;48.672;9.376;2023-05-01T06:30:43;98316.00;;;14.08;68.78
13312;BME280;34033;48.672;9.376;2023-05-01T06:33:08;98322.69;;;14.22;73.36
13312;BME280;34033;48.672;9.376;2023-05-01T06:35:38;98330.53;;;14.41;75.33
13312;BME280;34033;48.672;9.376;2023-05-01T06:38:03;98326.91;;;14.44;71.12
13312;BME280;34033;48.672;9.376;2023-05-01T06:40:29;98333.75;;;14.43;69.77
13312;BME280;34033;48.672;9.376;2023-05-01T06:42:56;98334.53;;;14.43;69.67
13312;BME280;34033;48.672;9.376;2023-05-01T06:45:21;98341.38;;;14.42;68.82
13312;BME280;34033;48.672;9.376;2023-05-01T06:47:47;98335.81;;;14.39;68.57
13312;BME280;34033;48.672;9.376;2023-05-01T06:50:12;98343.84;;;14.37;68.43
13312;BME280;34033;48.672;9.376;2023-05-01T06:52:39;98345.03;;;14.36;68.78
13312;BME280;34033;48.672;9.376;2023-05-01T06:55:04;98343.88;;;14.33;69.38
13312;BME280;34033;48.672;9.376;2023-05-01T06:57:30;98345.47;;;14.31;69.37
13312;BME280;34033;48.672;9.376;2023-05-01T06:59:55;98346.28;;;14.31;69.89
13312;BME280;34033;48.672;9.376;2023-05-01T07:02:20;98355.13;;;14.33;69.85
13312;BME280;34033;48.672;9.376;2023-05-01T07:04:46;98355.09;;;14.37;69.38
13312;BME280;34033;48.672;9.376;2023-05-01T07:07:11;98358.31;;;14.39;69.29
13312;BME280;34033;48.672;9.376;2023-05-01T07:09:37;98355.81;;;14.44;69.83
13312;BME280;34033;48.672;9.376;2023-05-01T07:12:03;98355.44;;;14.42;69.39
13312;BME280;34033;48.672;9.376;2023-05-01T07:14:29;98355.50;;;14.39;68.80
13312;BME280;34033;48.672;9.376;2023-05-01T07:16:55;98361.06;;;14.42;69.34
13312;BME280;34033;48.672;9.376;2023-05-01T07:19:20;98359.41;;;14.45;69.73
13312;BME280;34033;48.672;9.376;2023-05-01T07:21:45;98356.56;;;15.43;91.78
13312;BME280;34033;48.672;9.376;2023-05-01T07:24:11;98353.97;;;16.29;79.71
13312;BME280;34033;48.672;9.376;2023-05-01T07:26:37;98346.75;;;16.91;72.03
13312;BME280;34033;48.672;9.376;2023-05-01T07:29:03;98349.25;;;16.65;69.31
13312;BME280;34033;48.672;9.376;2023-05-01T07:31:28;98347.09;;;16.30;66.02
13312;BME280;34033;48.672;9.376;2023-05-01T07:33:54;98343.19;;;16.01;65.46
13312;BME280;34033;48.672;9.376;2023-05-01T07:36:19;98350.03;;;15.76;64.59
13312;BME280;34033;48.672;9.376;2023-05-01T07:38:47;98347.50;;;15.59;65.29
13312;BME280;34033;48.672;9.376;2023-05-01T07:41:12;98340.47;;;15.43;65.74
13312;BME280;34033;48.672;9.376;2023-05-01T07:43:37;98342.84;;;15.45;69.20
13312;BME280;34033;48.672;9.376;2023-05-01T07:46:03;98351.00;;;15.66;71.29
13312;BME280;34033;48.672;9.376;2023-05-01T07:48:30;98341.41;;;15.60;67.15
13312;BME280;34033;48.672;9.376;2023-05-01T07:50:56;98335.06;;;15.56;66.18
13312;BME280;34033;48.672;9.376;2023-05-01T07:53:21;98334.38;;;15.45;66.26
13312;BME280;34033;48.672;9.376;2023-05-01T07:55:47;98339.28;;;15.41;66.54
13312;BME280;34033;48.672;9.376;2023-05-01T07:58:13;98340.88;;;15.42;66.46
13312;BME280;34033;48.672;9.376;2023-05-01T08:00:38;98347.31;;;15.42;66.69
13312;BME280;34033;48.672;9.376;2023-05-01T08:03:03;98342.47;;;15.43;65.82
13312;BME280;34033;48.672;9.376;2023-05-01T08:05:29;98344.81;;;15.48;65.35
13312;BME280;34033;48.672;9.376;2023-05-01T08:07:56;98342.78;;;15.52;66.02
13312;BME280;34033;48.672;9.376;2023-05-01T08:10:21;98340.28;;;15.58;65.68
13312;BME280;34033;48.672;9.376;2023-05-01T08:12:46;98337.38;;;15.61;65.37
13312;BME280;34033;48.672;9.376;2023-05-01T08:15:12;98342.53;;;15.66;64.73
13312;BME280;34033;48.672;9.376;2023-05-01T08:17:37;98343.72;;;15.69;64.11
13312;BME280;34033;48.672;9.376;2023-05-01T08:20:03;98341.56;;;16.00;69.87
13312;BME280;34033;48.672;9.376;2023-05-01T08:22:28;98335.09;;;16.03;65.51
13312;BME280;34033;48.672;9.376;2023-05-01T08:24:54;98332.63;;;16.05;64.10
13312;BME280;34033;48.672;9.376;2023-05-01T08:27:20;98334.22;;;16.06;64.24
13312;BME280;34033;48.672;9.376;2023-05-01T08:29:45;98330.19;;;16.07;63.81
13312;BME280;34033;48.672;9.376;2023-05-01T08:32:10;98328.03;;;16.14;62.91
13312;BME280;34033;48.672;9.376;2023-05-01T08:34:36;98331.78;;;16.31;65.22
13312;BME280;34033;48.672;9.376;2023-05-01T08:37:01;98324.69;;;16.43;64.86
13312;BME280;34033;48.672;9.376;2023-05-01T08:39:27;98321.22;;;16.55;64.53
13312;BME280;34033;48.672;9.376;2023-05-01T08:41:52;98319.47;;;16.64;62.48
13312;BME280;34033;48.672;9.376;2023-05-01T08:44:19;98319.25;;;16.75;62.32
13312;BME280;34033;48.672;9.376;2023-05-01T08:46:49;98325.38;;;16.90;62.27
13312;BME280;34033;48.672;9.376;2023-05-01T08:49:18;98318.56;;;17.07;62.55
13312;BME280;34033;48.672;9.376;2023-05-01T08:51:46;98306.13;;;17.21;60.67
13312;BME280;34033;48.672;9.376;2023-05-01T08:54:13;98320.38;;;17.33;60.14
13312;BME280;34033;48.672;9.376;2023-05-01T08:56:41;98317.41;;;17.40;60.12
13312;BME280;34033;48.672;9.376;2023-05-01T08:59:08;98312.88;;;17.43;59.09
13312;BME280;34033;48.672;9.376;2023-05-01T09:01:36;98318.09;;;17.44;59.27
13312;BME280;34033;48.672;9.376;2023-05-01T09:04:02;98314.59;;;17.57;60.00
13312;BME280;34033;48.672;9.376;2023-05-01T09:06:28;98314.00;;;17.65;59.05
13312;BME280;34033;48.672;9.376;2023-05-01T09:08:54;98319.22;;;17.83;58.04
13312;BME280;34033;48.672;9.376;2023-05-01T09:11:21;98318.16;;;17.93;58.68
13312;BME280;34033;48.672;9.376;2023-05-01T09:13:47;98312.59;;;17.73;56.58
13312;BME280;34033;48.672;9.376;2023-05-01T09:16:12;98317.63;;;17.66;57.45
13312;BME280;34033;48.672;9.376;2023-05-01T09:18:38;98321.06;;;17.73;58.00
13312;BME280;34033;48.672;9.376;2023-05-01T09:21:05;98315.69;;;17.79;57.97
13312;BME280;34033;48.672;9.376;2023-05-01T09:23:30;98315.69;;;17.79;57.11
13312;BME280;34033;48.672;9.376;2023-05-01T09:25:58;98309.28;;;17.59;56.23
13312;BME280;34033;48.672;9.376;2023-05-01T09:28:43;98308.44;;;17.62;56.51
13312;BME280;34033;48.672;9.376;2023-05-01T09:31:26;98308.94;;;17.57;56.91
13312;BME280;34033;48.672;9.376;2023-05-01T09:34:02;98319.31;;;17.63;57.46
13312;BME280;34033;48.672;9.376;2023-05-01T09:36:34;98321.16;;;17.70;57.21
13312;BME280;34033;48.672;9.376;2023-05-01T09:39:01;98327.16;;;17.72;57.22
13312;BME280;34033;48.672;9.376;2023-05-01T09:41:28;98310.56;;;17.74;57.00
13312;BME280;34033;48.672;9.376;2023-05-01T09:43:57;98308.34;;;17.81;57.15
13312;BME280;34033;48.672;9.376;2023-05-01T09:46:24;98313.56;;;17.67;55.83
13312;BME280;34033;48.672;9.376;2023-05-01T09:48:53;98303.66;;;17.59;56.15
13312;BME280;34033;48.672;9.376;2023-05-01T09:51:33;98309.41;;;17.71;56.77
13312;BME280;34033;48.672;9.376;2023-05-01T09:54:02;98307.38;;;17.72;56.10
13312;BME280;34033;48.672;9.376;2023-05-01T09:56:30;98305.44;;;17.85;55.41
13312;BME280;34033;48.672;9.376;2023-05-01T09:58:58;98296.41;;;17.90;56.46
13312;BME280;34033;48.672;9.376;2023-05-01T10:04:02;98299.91;;;18.10;56.57
13312;BME280;34033;48.672;9.376;2023-05-01T10:06:28;98295.97;;;18.08;54.85
13312;BME280;34033;48.672;9.376;2023-05-01T10:08:53;98297.44;;;18.12;55.68
13312;BME280;34033;48.672;9.376;2023-05-01T10:11:19;98300.97;;;18.16;54.43
13312;BME280;34033;48.672;9.376;2023-05-01T10:13:55;98289.72;;;18.29;54.87
13312;BME280;34033;48.672;9.376;2023-05-01T10:16:29;98297.00;;;18.59;55.41
13312;BME280;34033;48.672;9.376;2023-05-01T10:18:55;98297.25;;;18.64;53.78
13312;BME280;34033;48.672;9.376;2023-05-01T10:21:22;98299.69;;;18.79;53.65
13312;BME280;34033;48.672;9.376;2023-05-01T10:23:47;98288.13;;;18.86;54.17
13312;BME280;34033;48.672;9.376;2023-05-01T10:26:13;98297.44;;;18.99;53.51
13312;BME280;34033;48.672;9.376;2023-05-01T10:28:41;98286.47;;;19.13;53.96
13312;BME280;34033;48.672;9.376;2023-05-01T10:31:09;98287.63;;;19.29;54.33
13312;BME280;34033;48.672;9.376;2023-05-01T10:33:38;98281.16;;;19.41;51.58
13312;BME280;34033;48.672;9.376;2023-05-01T10:36:05;98282.97;;;19.22;51.58
13312;BME280;34033;48.672;9.376;2023-05-01T10:38:32;98282.75;;;19.16;51.84
13312;BME280;34033;48.672;9.376;2023-05-01T10:40:59;98289.88;;;19.21;52.72
13312;BME280;34033;48.672;9.376;2023-05-01T10:43:26;98287.72;;;19.25;52.32
13312;BME280;34033;48.672;9.376;2023-05-01T10:53:37;98277.41;;;19.94;52.52
13312;BME280;34033;48.672;9.376;2023-05-01T10:56:03;98275.19;;;20.11;51.65
13312;BME280;34033;48.672;9.376;2023-05-01T11:06:29;98276.28;;;20.26;50.40
13312;BME280;34033;48.672;9.376;2023-05-01T11:08:55;98261.06;;;20.33;55.73
13312;BME280;34033;48.672;9.376;2023-05-01T11:19:06;98260.88;;;20.15;49.04
13312;BME280;34033;48.672;9.376;2023-05-01T11:21:33;98259.28;;;20.14;49.70
13312;BME280;34033;48.672;9.376;2023-05-01T11:24:03;98262.66;;;20.21;53.05
13312;BME280;34033;48.672;9.376;2023-05-01T11:26:29;98264.00;;;20.29;50.62
13312;BME280;34033;48.672;9.376;2023-05-01T11:28:58;98255.03;;;20.31;50.13
13312;BME280;34033;48.672;9.376;2023-05-01T11:31:27;98249.78;;;20.29;49.66
13312;BME280;34033;48.672;9.376;2023-05-01T11:33:57;98253.22;;;20.37;49.71
13312;BME280;34033;48.672;9.376;2023-05-01T11:36:22;98248.94;;;20.20;49.84
13312;BME280;34033;48.672;9.376;2023-05-01T11:38:49;98243.25;;;20.20;50.12
13312;BME280;34033;48.672;9.376;2023-05-01T11:41:19;98250.13;;;20.10;50.49
13312;BME280;34033;48.672;9.376;2023-05-01T11:44:03;98252.31;;;19.93;50.88
13312;BME280;34033;48.672;9.376;2023-05-01T11:46:30;98255.06;;;19.84;50.84
13312;BME280;34033;48.672;9.376;2023-05-01T11:49:00;98250.97;;;19.85;51.17
13312;BME280;34033;48.672;9.376;2023-05-01T11:51:26;98250.53;;;19.74;51.29
13312;BME280;34033;48.672;9.376;2023-05-01T11:54:08;98250.56;;;19.48;51.24
13312;BME280;34033;48.672;9.376;2023-05-01T11:56:34;98243.41;;;19.44;51.30
13312;BME280;34033;48.672;9.376;2023-05-01T11:59:14;98244.78;;;19.52;51.26
13312;BME280;34033;48.672;9.376;2023-05-01T12:01:44;98248.09;;;19.50;51.40
13312;BME280;34033;48.672;9.376;2023-05-01T12:04:11;98248.09;;;19.50;51.59
13312;BME280;34033;48.672;9.376;2023-05-01T12:06:44;98244.09;;;19.48;51.62
13312;BME280;34033;48.672;9.376;2023-05-01T12:11:39;98255.66;;;19.41;51.40
13312;BME280;34033;48.672;9.376;2023-05-01T12:14:05;98256.91;;;19.40;51.35
13312;BME280;34033;48.672;9.376;2023-05-01T12:16:30;98253.06;;;19.34;51.19
13312;BME280;34033;48.672;9.376;2023-05-01T12:18:56;98249.31;;;19.37;50.63
13312;BME280;34033;48.672;9.376;2023-05-01T12:21:22;98245.22;;;19.38;50.85
13312;BME280;34033;48.672;9.376;2023-05-01T12:23:49;98242.97;;;19.33;51.49
13312;BME280;34033;48.672;9.376;2023-05-01T12:26:18;98242.97;;;19.33;51.24
13312;BME280;34033;48.672;9.376;2023-05-01T12:31:22;98244.91;;;19.23;52.03
13312;BME280;34033;48.672;9.376;2023-05-01T12:33:59;98245.09;;;19.03;52.16
13312;BME280;34033;48.672;9.376;2023-05-01T12:36:27;98249.53;;;19.04;52.10
13312;BME280;34033;48.672;9.376;2023-05-01T12:43:56;98247.69;;;18.85;51.69
13312;BME280;34033;48.672;9.376;2023-05-01T12:46:22;98245.41;;;18.80;52.47
13312;BME280;34033;48.672;9.376;2023-05-01T12:48:47;98248.34;;;18.77;52.62
13312;BME280;34033;48.672;9.376;2023-05-01T12:51:20;98249.91;;;18.65;51.97
13312;BME280;34033;48.672;9.376;2023-05-01T12:53:46;98252.97;;;18.58;52.35
13312;BME280;34033;48.672;9.376;2023-05-01T12:56:22;98254.50;;;19.00;66.34
13312;BME280;34033;48.672;9.376;2023-05-01T12:58:49;98254.25;;;18.82;53.37
13312;BME280;34033;48.672;9.376;2023-05-01T13:01:26;98248.59;;;18.82;53.12
13312;BME280;34033;48.672;9.376;2023-05-01T13:03:53;98234.97;;;18.77;52.82
13312;BME280;34033;48.672;9.376;2023-05-01T13:06:20;98243.69;;;18.70;51.82
13312;BME280;34033;48.672;9.376;2023-05-01T13:08:46;98251.97;;;18.77;52.15
13312;BME280;34033;48.672;9.376;2023-05-01T13:11:16;98247.47;;;18.92;51.89
13312;BME280;34033;48.672;9.376;2023-05-01T13:13:43;98241.25;;;19.10;51.65
13312;BME280;34033;48.672;9.376;2023-05-01T13:16:13;98242.63;;;19.31;51.06
13312;BME280;34033;48.672;9.376;2023-05-01T13:18:46;98236.28;;;19.39;50.50
13312;BME280;34033;48.672;9.376;2023-05-01T13:21:14;98234.34;;;19.49;50.19
13312;BME280;34033;48.672;9.376;2023-05-01T13:23:40;98235.47;;;19.39;49.59
13312;BME280;34033;48.672;9.376;2023-05-01T13:26:07;98235.38;;;19.55;49.27
13312;BME280;34033;48.672;9.376;2023-05-01T13:28:43;98237.53;;;19.51;49.15
13312;BME280;34033;48.672;9.376;2023-05-01T13:31:13;98236.84;;;19.47;49.56
13312;BME280;34033;48.672;9.376;2023-05-01T13:33:40;98223.94;;;19.46;49.93
13312;BME280;34033;48.672;9.376;2023-05-01T13:36:08;98233.09;;;19.25;49.89
13312;BME280;34033;48.672;9.376;2023-05-01T13:38:40;98236.81;;;19.09;50.38
13312;BME280;34033;48.672;9.376;2023-05-01T13:41:06;98236.38;;;18.85;50.27
13312;BME280;34033;48.672;9.376;2023-05-01T13:43:33;98237.69;;;18.68;51.19
13312;BME280;34033;48.672;9.376;2023-05-01T13:45:58;98244.25;;;18.65;51.86
13312;BME280;34033;48.672;9.376;2023-05-01T13:48:24;98245.03;;;18.65;51.58